createdAt,value
2023-01-26T00:00:18.816Z,92.28
2023-01-26T00:05:43.219Z,92.33
2023-01-26T00:10:51.721Z,92.28
2023-01-26T00:15:56.108Z,92.36
2023-01-26T00:21:02.111Z,92.39
2023-01-26T00:26:07.768Z,92.42
2023-01-26T00:31:19.567Z,92.53
2023-01-26T00:36:24.251Z,92.48
2023-01-26T00:41:46.927Z,92.35
2023-01-26T00:46:54.505Z,92.42
2023-01-26T00:51:58.438Z,92.51
2023-01-26T00:57:02.912Z,92.45
2023-01-26T01:02:08.005Z,92.49
2023-01-26T01:07:12.491Z,92.52
2023-01-26T01:12:16.473Z,92.59
2023-01-26T01:17:20.574Z,92.61
2023-01-26T01:22:25.105Z,92.48
2023-01-26T01:27:32.022Z,92.55
2023-01-26T01:32:36.716Z,92.63
2023-01-26T01:37:41.350Z,92.64
2023-01-26T01:42:49.306Z,92.64
2023-01-26T01:47:58.154Z,92.59
2023-01-26T01:53:02.392Z,92.44
2023-01-26T01:58:11.096Z,92.56
2023-01-26T02:03:16.034Z,92.56
2023-01-26T02:08:23.321Z,92.53
2023-01-26T02:13:28.016Z,92.63
2023-01-26T02:18:31.908Z,92.60
2023-01-26T02:23:35.861Z,92.40
2023-01-26T02:28:44.839Z,92.59
2023-01-26T02:33:48.950Z,92.70
2023-01-26T02:38:56.218Z,92.63
2023-01-26T02:44:00.088Z,92.57
2023-01-26T02:49:23.066Z,92.62
2023-01-26T02:54:45.490Z,92.65
2023-01-26T02:59:50.568Z,92.70
2023-01-26T03:04:54.368Z,92.68
2023-01-26T03:10:02.465Z,92.59
2023-01-26T03:15:28.566Z,92.53
2023-01-26T03:20:51.433Z,92.44
2023-01-26T03:26:16.349Z,92.43
2023-01-26T03:31:21.207Z,92.34
2023-01-26T03:36:25.418Z,92.34
2023-01-26T03:41:49.981Z,92.26
2023-01-26T03:47:14.010Z,92.19
2023-01-26T03:52:37.588Z,92.14
2023-01-26T03:57:42.681Z,92.05
2023-01-26T04:03:05.174Z,91.99
2023-01-26T04:08:31.573Z,91.91
2023-01-26T04:13:56.817Z,91.63
2023-01-26T04:19:24.945Z,91.10
2023-01-26T04:24:29.102Z,90.97
2023-01-26T04:29:36.047Z,90.91
2023-01-26T04:34:41.379Z,90.52
2023-01-26T04:39:54.035Z,90.22
2023-01-26T04:44:59.305Z,89.90
2023-01-26T04:50:08.740Z,90.23
2023-01-26T04:55:13.821Z,89.69
2023-01-26T05:00:20.787Z,89.40
2023-01-26T05:05:25.843Z,89.21
2023-01-26T05:10:30.658Z,89.49
2023-01-26T05:15:54.569Z,89.55
2023-01-26T05:21:17.146Z,89.73
2023-01-26T05:26:27.659Z,89.75
2023-01-26T05:31:35.565Z,89.84
2023-01-26T05:36:41.240Z,89.72
2023-01-26T05:41:46.484Z,90.04
2023-01-26T05:47:11.649Z,89.99
2023-01-26T05:52:19.304Z,89.86
2023-01-26T05:57:23.760Z,89.74
2023-01-26T06:02:36.124Z,89.88
2023-01-26T06:07:41.059Z,89.81
2023-01-26T06:13:01.362Z,89.86
2023-01-26T06:18:18.599Z,89.87
2023-01-26T06:23:32.427Z,89.85
2023-01-26T06:28:38.845Z,89.90
2023-01-26T06:33:43.181Z,89.94
2023-01-26T06:38:50.769Z,90.01
2023-01-26T06:43:55.565Z,90.10
2023-01-26T06:49:03.137Z,90.05
2023-01-26T06:54:10.755Z,90.00
2023-01-26T06:59:38.100Z,90.03
2023-01-26T07:05:11.020Z,89.87
2023-01-26T07:10:15.733Z,89.82
2023-01-26T07:15:19.691Z,89.73
2023-01-26T07:20:24.088Z,89.62
2023-01-26T07:25:28.467Z,89.46
2023-01-26T07:30:33.508Z,89.44
2023-01-26T07:35:37.278Z,89.32
2023-01-26T07:40:41.750Z,89.22
2023-01-26T07:45:54.919Z,88.89
2023-01-26T07:51:00.973Z,88.43
2023-01-26T07:56:28.316Z,88.14
2023-01-26T08:01:32.155Z,87.95
2023-01-26T08:06:36.496Z,87.60
2023-01-26T08:11:48.709Z,86.85
2023-01-26T08:16:53.270Z,86.38
2023-01-26T08:21:58.367Z,86.53
2023-01-26T08:27:03.099Z,86.67
2023-01-26T08:32:09.517Z,86.57
2023-01-26T08:37:14.319Z,86.62
2023-01-26T08:42:18.615Z,86.27
2023-01-26T08:47:22.503Z,86.18
2023-01-26T08:52:29.515Z,85.97
2023-01-26T08:57:34.218Z,86.36
2023-01-26T09:02:38.714Z,86.35
2023-01-26T09:07:42.999Z,85.29
2023-01-26T09:12:47.740Z,85.98
2023-01-26T09:17:52.420Z,85.23
2023-01-26T09:22:56.652Z,85.45
2023-01-26T09:28:04.023Z,85.33
2023-01-26T09:33:09.836Z,85.19
2023-01-26T09:38:13.855Z,84.57
2023-01-26T09:43:29.632Z,84.66
2023-01-26T09:48:43.033Z,84.22
2023-01-26T09:54:21.741Z,84.00
2023-01-26T09:59:35.797Z,83.39
2023-01-26T10:04:42.867Z,83.69
2023-01-26T10:09:49.703Z,82.79
2023-01-26T10:14:59.837Z,82.07
2023-01-26T10:20:18.978Z,81.77
2023-01-26T10:25:49.219Z,81.96
2023-01-26T10:30:55.854Z,81.97
2023-01-26T10:36:04.400Z,81.72
2023-01-26T10:41:23.671Z,81.26
2023-01-26T10:46:30.734Z,80.87
2023-01-26T10:51:36.498Z,81.00
2023-01-26T10:56:57.207Z,80.55
2023-01-26T11:02:11.721Z,80.76
2023-01-26T11:07:32.848Z,80.70
2023-01-26T11:12:36.657Z,80.90
2023-01-26T11:17:47.593Z,81.02
2023-01-26T11:23:00.350Z,80.90
2023-01-26T11:28:22.813Z,81.13
2023-01-26T11:33:38.878Z,81.22
2023-01-26T11:38:46.310Z,81.23
2023-01-26T11:44:08.946Z,81.19
2023-01-26T11:49:41.754Z,81.07
2023-01-26T11:55:06.003Z,81.07
2023-01-26T12:00:30.658Z,81.51
2023-01-26T12:05:46.684Z,81.54
2023-01-26T12:11:23.602Z,81.17
2023-01-26T12:16:56.418Z,81.49
2023-01-26T12:22:07.181Z,81.88
2023-01-26T12:27:44.498Z,81.92
2023-01-26T12:32:48.329Z,81.95
2023-01-26T12:38:17.936Z,81.10
2023-01-26T12:43:38.521Z,81.48
2023-01-26T12:48:47.937Z,81.40
2023-01-26T12:54:05.099Z,80.35
2023-01-26T12:59:46.386Z,81.70
2023-01-26T13:04:51.863Z,81.67
2023-01-26T13:10:15.224Z,81.12
2023-01-26T13:15:22.630Z,81.68
2023-01-26T13:20:50.076Z,81.47
2023-01-26T13:26:46.502Z,81.11
2023-01-26T13:32:01.134Z,81.41
2023-01-26T13:37:19.800Z,81.72
2023-01-26T13:42:28.279Z,81.85
2023-01-26T13:47:38.649Z,81.75
2023-01-26T13:52:43.439Z,81.79
2023-01-26T13:57:50.019Z,81.89
2023-01-26T14:02:55.254Z,81.98
2023-01-26T14:08:00.367Z,82.02
2023-01-26T14:13:11.092Z,82.06
2023-01-26T14:18:21.942Z,82.16
2023-01-26T14:23:30.253Z,82.30
2023-01-26T14:35:23.727Z,82.49
2023-01-26T14:40:29.452Z,82.56
2023-01-26T14:45:34.738Z,82.70
2023-01-26T14:50:39.279Z,82.84
2023-01-26T14:55:44.845Z,82.97
2023-01-26T15:00:50.659Z,83.10
2023-01-26T15:06:29.070Z,83.24
2023-01-26T15:11:58.608Z,83.27
2023-01-26T15:17:03.454Z,83.35
2023-01-26T15:22:25.917Z,83.34
2023-01-26T15:27:37.193Z,83.38
2023-01-26T15:32:41.907Z,83.59
2023-01-26T15:37:46.015Z,83.58
2023-01-26T15:42:50.041Z,83.45
2023-01-26T15:47:55.907Z,83.53
2023-01-26T15:53:00.457Z,83.60
2023-01-26T15:58:04.968Z,83.67
2023-01-26T16:03:15.277Z,83.58
2023-01-26T16:08:21.019Z,83.67
2023-01-26T16:13:24.759Z,83.75
2023-01-26T16:18:28.608Z,83.78
2023-01-26T16:23:35.109Z,83.90
2023-01-26T16:28:39.011Z,83.96
2023-01-26T16:33:43.937Z,83.89
2023-01-26T16:38:48.956Z,83.91
2023-01-26T16:43:56.872Z,83.91
2023-01-26T16:49:01.231Z,84.11
2023-01-26T16:54:06.107Z,84.14
2023-01-26T16:59:10.209Z,84.14
2023-01-26T17:04:14.261Z,84.19
2023-01-26T17:09:18.296Z,84.23
2023-01-26T17:14:22.543Z,84.27
2023-01-26T17:19:27.165Z,84.34
2023-01-26T17:24:31.020Z,84.38
2023-01-26T17:29:34.880Z,84.36
2023-01-26T17:34:38.975Z,84.44
2023-01-26T17:39:43.093Z,84.43
2023-01-26T17:44:47.687Z,84.44
2023-01-26T17:49:52.698Z,84.50
2023-01-26T17:54:56.962Z,84.54
2023-01-26T18:00:02.232Z,84.61
2023-01-26T18:05:14.165Z,84.67
2023-01-26T18:10:18.785Z,84.75
2023-01-26T18:15:26.155Z,84.76
2023-01-26T18:20:33.150Z,84.81
2023-01-26T18:25:38.718Z,84.82
2023-01-26T18:30:43.401Z,84.91
2023-01-26T18:35:47.857Z,84.89
2023-01-26T18:40:58.124Z,84.93
2023-01-26T18:46:05.614Z,84.92
2023-01-26T18:51:16.354Z,85.05
2023-01-26T18:56:21.601Z,85.04
2023-01-26T19:01:29.517Z,85.09
2023-01-26T19:06:37.713Z,85.10
2023-01-26T19:11:44.439Z,85.08
2023-01-26T19:16:56.106Z,85.06
2023-01-26T19:22:03.795Z,85.02
2023-01-26T19:27:08.905Z,85.15
2023-01-26T19:32:20.430Z,85.19
2023-01-26T19:37:27.133Z,85.30
2023-01-26T19:42:33.023Z,85.30
2023-01-26T19:53:11.090Z,85.03
2023-01-26T19:58:31.410Z,85.09
2023-01-26T20:03:39.548Z,85.05
2023-01-26T20:08:44.885Z,85.12
2023-01-26T20:13:59.419Z,85.07
2023-01-26T20:19:05.742Z,85.19
2023-01-26T20:24:17.853Z,85.40
2023-01-26T20:29:23.158Z,85.48
2023-01-26T20:34:30.338Z,85.71
2023-01-26T20:39:38.094Z,85.82
2023-01-26T20:44:44.562Z,85.85
2023-01-26T20:49:50.600Z,85.92
2023-01-26T20:54:58.051Z,86.04
2023-01-26T21:00:05.184Z,86.57
2023-01-26T21:05:13.318Z,86.32
2023-01-26T21:10:19.714Z,86.70
2023-01-26T21:15:25.097Z,86.88
2023-01-26T21:20:29.665Z,87.71
2023-01-26T21:25:34.053Z,88.11
2023-01-26T21:30:39.109Z,87.75
2023-01-26T21:35:43.311Z,88.05
2023-01-26T21:40:47.906Z,88.07
2023-01-26T21:45:59.767Z,88.52
2023-01-26T21:51:23.611Z,88.70
2023-01-26T21:56:29.961Z,88.80
2023-01-26T22:01:37.927Z,88.42
2023-01-26T22:06:41.899Z,88.96
2023-01-26T22:11:46.439Z,89.07
2023-01-26T22:16:50.298Z,88.98
2023-01-26T22:21:55.582Z,88.85
2023-01-26T22:26:59.863Z,88.97
2023-01-26T22:32:04.754Z,88.64
2023-01-26T22:37:08.758Z,88.53
2023-01-26T22:42:14.313Z,88.78
2023-01-26T22:47:17.988Z,88.39
2023-01-26T22:52:22.668Z,88.47
2023-01-26T22:57:27.056Z,88.23
2023-01-26T23:02:32.036Z,88.40
2023-01-26T23:07:38.969Z,88.50
2023-01-26T23:12:43.537Z,88.63
2023-01-26T23:17:52.024Z,88.69
2023-01-26T23:22:57.156Z,89.04
2023-01-26T23:28:03.620Z,88.79
2023-01-26T23:33:09.517Z,88.89
2023-01-26T23:38:16.749Z,89.05
2023-01-26T23:43:22.245Z,89.05
2023-01-26T23:48:28.220Z,89.07
2023-01-26T23:53:32.917Z,89.25
2023-01-26T23:58:37.881Z,89.15
